sensor_id;sensor_type;location;lat;lon;timestamp;temperature;humidity
20700;DHT22;10511;51.232;9.420;2023-08-01T00:01:32;16.10;99.90
20700;DHT22;10511;51.232;9.420;2023-08-01T00:03:59;16.00;99.90
20700;DHT22;10511;51.232;9.420;2023-08-01T00:06:26;16.00;99.90
20700;DHT22;10511;51.232;9.420;2023-08-01T00:08:53;16.00;99.90
20700;DHT22;10511;51.232;9.420;2023-08-01T00:11:20;16.00;99.90
20700;DHT22;10511;51.232;9.420;2023-08-01T00:13:47;16.10;99.90
20700;DHT22;10511;51.232;9.420;2023-08-01T00:16:15;16.10;99.90
20700;DHT22;10511;51.232;9.420;2023-08-01T00:18:42;16.10;99.90
20700;DHT22;10511;51.232;9.420;2023-08-01T00:21:09;16.10;99.90
20700;DHT22;10511;51.232;9.420;2023-08-01T00:23:37;16.10;99.90
20700;DHT22;10511;51.232;9.420;2023-08-01T00:26:04;16.10;99.90
20700;DHT22;10511;51.232;9.420;2023-08-01T00:28:31;16.10;99.90
20700;DHT22;10511;51.232;9.420;2023-08-01T00:31:04;16.10;99.90
20700;DHT22;10511;51.232;9.420;2023-08-01T00:33:33;16.10;99.90
20700;DHT22;10511;51.232;9.420;2023-08-01T00:36:01;16.10;99.90
20700;DHT22;10511;51.232;9.420;2023-08-01T00:38:36;16.10;99.90
20700;DHT22;10511;51.232;9.420;2023-08-01T00:41:03;16.10;99.90
20700;DHT22;10511;51.232;9.420;2023-08-01T00:43:30;16.10;99.90
20700;DHT22;10511;51.232;9.420;2023-08-01T00:46:00;16.10;99.90
20700;DHT22;10511;51.232;9.420;2023-08-01T00:48:28;16.10;99.90
20700;DHT22;10511;51.232;9.420;2023-08-01T00:50:57;16.10;99.90
20700;DHT22;10511;51.232;9.420;2023-08-01T00:53:24;16.10;99.90
20700;DHT22;10511;51.232;9.420;2023-08-01T00:55:52;16.20;99.90
20700;DHT22;10511;51.232;9.420;2023-08-01T00:58:19;16.20;99.90
20700;DHT22;10511;51.232;9.420;2023-08-01T01:00:46;16.20;99.90
20700;DHT22;10511;51.232;9.420;2023-08-01T01:03:13;16.30;99.90
20700;DHT22;10511;51.232;9.420;2023-08-01T01:05:46;16.20;99.90
20700;DHT22;10511;51.232;9.420;2023-08-01T01:08:16;16.20;99.90
20700;DHT22;10511;51.232;9.420;2023-08-01T01:10:43;16.30;99.90
20700;DHT22;10511;51.232;9.420;2023-08-01T01:13:10;16.20;99.90
20700;DHT22;10511;51.232;9.420;2023-08-01T01:15:36;16.20;99.90
20700;DHT22;10511;51.232;9.420;2023-08-01T01:18:03;16.20;99.90
20700;DHT22;10511;51.232;9.420;2023-08-01T01:20:33;16.20;99.90
20700;DHT22;10511;51.232;9.420;2023-08-01T01:23:01;16.30;99.90
20700;DHT22;10511;51.232;9.420;2023-08-01T01:25:31;16.30;99.90
20700;DHT22;10511;51.232;9.420;2023-08-01T01:27:59;16.30;99.90
20700;DHT22;10511;51.232;9.420;2023-08-01T01:30:28;16.30;99.90
20700;DHT22;10511;51.232;9.420;2023-08-01T01:32:56;16.30;99.90
20700;DHT22;10511;51.232;9.420;2023-08-01T01:35:24;16.30;99.90
20700;DHT22;10511;51.232;9.420;2023-08-01T01:37:52;16.30;99.90
20700;DHT22;10511;51.232;9.420;2023-08-01T01:40:19;16.30;99.90
20700;DHT22;10511;51.232;9.420;2023-08-01T01:42:46;16.30;99.90
20700;DHT22;10511;51.232;9.420;2023-08-01T01:45:14;16.40;99.90
20700;DHT22;10511;51.232;9.420;2023-08-01T01:47:41;16.40;99.90
20700;DHT22;10511;51.232;9.420;2023-08-01T01:50:09;16.40;99.90
20700;DHT22;10511;51.232;9.420;2023-08-01T01:52:36;16.40;99.90
20700;DHT22;10511;51.232;9.420;2023-08-01T01:55:05;16.50;99.90
20700;DHT22;10511;51.232;9.420;2023-08-01T01:57:32;16.50;99.90
20700;DHT22;10511;51.232;9.420;2023-08-01T02:00:01;16.60;99.90
20700;DHT22;10511;51.232;9.420;2023-08-01T02:02:28;16.60;99.90
20700;DHT22;10511;51.232;9.420;2023-08-01T02:04:55;16.70;99.90
20700;DHT22;10511;51.232;9.420;2023-08-01T02:07:22;16.70;99.90
20700;DHT22;10511;51.232;9.420;2023-08-01T02:09:49;16.60;99.90
20700;DHT22;10511;51.232;9.420;2023-08-01T02:12:17;16.60;99.90
20700;DHT22;10511;51.232;9.420;2023-08-01T02:14:44;16.60;99.90
20700;DHT22;10511;51.232;9.420;2023-08-01T02:17:11;16.60;99.90
20700;DHT22;10511;51.232;9.420;2023-08-01T02:19:38;16.60;99.90
20700;DHT22;10511;51.232;9.420;2023-08-01T02:22:05;16.60;99.90
20700;DHT22;10511;51.232;9.420;2023-08-01T02:24:32;16.60;99.90
20700;DHT22;10511;51.232;9.420;2023-08-01T02:26:59;16.60;99.90
20700;DHT22;10511;51.232;9.420;2023-08-01T02:29:28;16.50;99.90
20700;DHT22;10511;51.232;9.420;2023-08-01T02:31:55;16.50;99.90
20700;DHT22;10511;51.232;9.420;2023-08-01T02:34:22;16.40;99.90
20700;DHT22;10511;51.232;9.420;2023-08-01T02:36:49;16.40;99.90
20700;DHT22;10511;51.232;9.420;2023-08-01T02:39:15;16.40;99.90
20700;DHT22;10511;51.232;9.420;2023-08-01T02:41:42;16.40;99.90
20700;DHT22;10511;51.232;9.420;2023-08-01T02:44:09;16.30;99.90
20700;DHT22;10511;51.232;9.420;2023-08-01T02:46:37;16.30;99.90
20700;DHT22;10511;51.232;9.420;2023-08-01T02:49:04;16.30;99.90
20700;DHT22;10511;51.232;9.420;2023-08-01T02:51:30;16.30;99.90
20700;DHT22;10511;51.232;9.420;2023-08-01T02:53:57;16.30;99.90
20700;DHT22;10511;51.232;9.420;2023-08-01T02:56:24;16.30;99.90
20700;DHT22;10511;51.232;9.420;2023-08-01T02:58:53;16.20;99.90
20700;DHT22;10511;51.232;9.420;2023-08-01T03:01:21;16.20;99.90
20700;DHT22;10511;51.232;9.420;2023-08-01T03:03:49;16.20;99.90
20700;DHT22;10511;51.232;9.420;2023-08-01T03:06:16;16.20;99.90
20700;DHT22;10511;51.232;9.420;2023-08-01T03:08:43;16.10;99.90
20700;DHT22;10511;51.232;9.420;2023-08-01T03:11:10;16.10;99.90
20700;DHT22;10511;51.232;9.420;2023-08-01T03:13:37;16.10;99.90
20700;DHT22;10511;51.232;9.420;2023-08-01T03:16:04;16.20;99.90
20700;DHT22;10511;51.232;9.420;2023-08-01T03:18:31;16.20;99.90
20700;DHT22;10511;51.232;9.420;2023-08-01T03:20:59;16.20;99.90
20700;DHT22;10511;51.232;9.420;2023-08-01T03:23:29;16.20;99.90
20700;DHT22;10511;51.232;9.420;2023-08-01T03:25:56;16.20;99.90
20700;DHT22;10511;51.232;9.420;2023-08-01T03:28:24;16.30;99.90
20700;DHT22;10511;51.232;9.420;2023-08-01T03:30:51;16.30;99.90
20700;DHT22;10511;51.232;9.420;2023-08-01T03:33:19;16.20;99.90
20700;DHT22;10511;51.232;9.420;2023-08-01T03:35:46;16.20;99.90
20700;DHT22;10511;51.232;9.420;2023-08-01T03:38:14;16.20;99.90
20700;DHT22;10511;51.232;9.420;2023-08-01T03:40:41;16.20;99.90
20700;DHT22;10511;51.232;9.420;2023-08-01T03:43:08;16.20;99.90
20700;DHT22;10511;51.232;9.420;2023-08-01T03:45:36;16.20;99.90
20700;DHT22;10511;51.232;9.420;2023-08-01T03:48:03;16.30;99.90
20700;DHT22;10511;51.232;9.420;2023-08-01T03:50:30;16.20;99.90
20700;DHT22;10511;51.232;9.420;2023-08-01T03:52:57;16.20;99.90
20700;DHT22;10511;51.232;9.420;2023-08-01T03:55:25;16.30;99.90
20700;DHT22;10511;51.232;9.420;2023-08-01T03:57:52;16.30;99.90
20700;DHT22;10511;51.232;9.420;2023-08-01T04:00:19;16.20;99.90
20700;DHT22;10511;51.232;9.420;2023-08-01T04:02:46;16.20;99.90
20700;DHT22;10511;51.232;9.420;2023-08-01T04:05:13;16.30;99.90
20700;DHT22;10511;51.232;9.420;2023-08-01T04:07:41;16.30;99.90
20700;DHT22;10511;51.232;9.420;2023-08-01T04:10:09;16.30;99.90
20700;DHT22;10511;51.232;9.420;2023-08-01T04:12:37;16.30;99.90
20700;DHT22;10511;51.232;9.420;2023-08-01T04:15:05;16.30;99.90
20700;DHT22;10511;51.232;9.420;2023-08-01T04:17:32;16.30;99.90
20700;DHT22;10511;51.232;9.420;2023-08-01T04:19:59;16.40;99.90
20700;DHT22;10511;51.232;9.420;2023-08-01T04:22:26;16.30;99.90
20700;DHT22;10511;51.232;9.420;2023-08-01T04:24:53;16.40;99.90
20700;DHT22;10511;51.232;9.420;2023-08-01T04:27:20;16.30;99.90
20700;DHT22;10511;51.232;9.420;2023-08-01T04:29:49;16.30;99.90
20700;DHT22;10511;51.232;9.420;2023-08-01T04:32:15;16.30;99.90
20700;DHT22;10511;51.232;9.420;2023-08-01T04:34:42;16.30;99.90
20700;DHT22;10511;51.232;9.420;2023-08-01T04:37:09;16.30;99.90
20700;DHT22;10511;51.232;9.420;2023-08-01T04:39:37;16.40;99.90
20700;DHT22;10511;51.232;9.420;2023-08-01T04:42:04;16.30;99.90
20700;DHT22;10511;51.232;9.420;2023-08-01T04:44:32;16.30;99.90
20700;DHT22;10511;51.232;9.420;2023-08-01T04:47:00;16.30;99.90
20700;DHT22;10511;51.232;9.420;2023-08-01T04:49:27;16.30;99.90
20700;DHT22;10511;51.232;9.420;2023-08-01T04:51:55;16.30;99.90
20700;DHT22;10511;51.232;9.420;2023-08-01T04:54:22;16.30;99.90
20700;DHT22;10511;51.232;9.420;2023-08-01T04:56:49;16.40;99.90
20700;DHT22;10511;51.232;9.420;2023-08-01T04:59:16;16.40;99.90
20700;DHT22;10511;51.232;9.420;2023-08-01T05:01:43;16.40;99.90
20700;DHT22;10511;51.232;9.420;2023-08-01T05:04:11;16.40;99.90
20700;DHT22;10511;51.232;9.420;2023-08-01T05:06:38;16.40;99.90
20700;DHT22;10511;51.232;9.420;2023-08-01T05:09:06;16.40;99.90
20700;DHT22;10511;51.232;9.420;2023-08-01T05:11:33;16.40;99.90
20700;DHT22;10511;51.232;9.420;2023-08-01T05:13:59;16.40;99.90
20700;DHT22;10511;51.232;9.420;2023-08-01T05:16:26;16.40;99.90
20700;DHT22;10511;51.232;9.420;2023-08-01T05:18:53;16.40;99.90
20700;DHT22;10511;51.232;9.420;2023-08-01T05:21:22;16.30;99.90
20700;DHT22;10511;51.232;9.420;2023-08-01T05:23:49;16.30;99.90
20700;DHT22;10511;51.232;9.420;2023-08-01T05:26:16;16.40;99.90
20700;DHT22;10511;51.232;9.420;2023-08-01T05:28:43;16.40;99.90
20700;DHT22;10511;51.232;9.420;2023-08-01T05:31:10;16.30;99.90
20700;DHT22;10511;51.232;9.420;2023-08-01T05:33:37;16.40;99.90
20700;DHT22;10511;51.232;9.420;2023-08-01T05:36:04;16.40;99.90
20700;DHT22;10511;51.232;9.420;2023-08-01T05:38:32;16.40;99.90
20700;DHT22;10511;51.232;9.420;2023-08-01T05:40:59;16.40;99.90
20700;DHT22;10511;51.232;9.420;2023-08-01T05:43:26;16.30;99.90
20700;DHT22;10511;51.232;9.420;2023-08-01T05:45:53;16.40;99.90
20700;DHT22;10511;51.232;9.420;2023-08-01T05:48:21;16.40;99.90
20700;DHT22;10511;51.232;9.420;2023-08-01T05:50:48;16.30;99.90
20700;DHT22;10511;51.232;9.420;2023-08-01T05:53:14;16.40;99.90
20700;DHT22;10511;51.232;9.420;2023-08-01T05:55:43;16.40;99.90
20700;DHT22;10511;51.232;9.420;2023-08-01T05:58:10;16.40;99.90
20700;DHT22;10511;51.232;9.420;2023-08-01T06:00:37;16.10;99.90
20700;DHT22;10511;51.232;9.420;2023-08-01T06:03:04;16.00;99.90
20700;DHT22;10511;51.232;9.420;2023-08-01T06:05:31;15.90;99.90
20700;DHT22;10511;51.232;9.420;2023-08-01T06:07:58;15.80;99.90
20700;DHT22;10511;51.232;9.420;2023-08-01T06:10:24;15.80;99.90
20700;DHT22;10511;51.232;9.420;2023-08-01T06:12:53;15.90;99.90
20700;DHT22;10511;51.232;9.420;2023-08-01T06:15:20;15.90;99.90
20700;DHT22;10511;51.232;9.420;2023-08-01T06:17:47;15.90;99.90
20700;DHT22;10511;51.232;9.420;2023-08-01T06:20:14;15.80;99.90
20700;DHT22;10511;51.232;9.420;2023-08-01T06:22:41;15.80;99.90
20700;DHT22;10511;51.232;9.420;2023-08-01T06:25:08;15.90;99.90
20700;DHT22;10511;51.232;9.420;2023-08-01T06:27:36;15.80;99.90
20700;DHT22;10511;51.232;9.420;2023-08-01T06:30:05;15.80;99.90
20700;DHT22;10511;51.232;9.420;2023-08-01T06:32:32;15.80;99.90
20700;DHT22;10511;51.232;9.420;2023-08-01T06:34:59;15.80;99.90
20700;DHT22;10511;51.232;9.420;2023-08-01T06:37:26;16.00;99.90
20700;DHT22;10511;51.232;9.420;2023-08-01T06:39:54;16.00;99.90
20700;DHT22;10511;51.232;9.420;2023-08-01T06:42:21;16.00;99.90
20700;DHT22;10511;51.232;9.420;2023-08-01T06:44:48;16.10;99.90
20700;DHT22;10511;51.232;9.420;2023-08-01T06:47:16;16.10;99.90
20700;DHT22;10511;51.232;9.420;2023-08-01T06:49:43;16.10;99.90
20700;DHT22;10511;51.232;9.420;2023-08-01T06:52:10;16.00;99.90
20700;DHT22;10511;51.232;9.420;2023-08-01T06:54:37;16.00;99.90
20700;DHT22;10511;51.232;9.420;2023-08-01T06:57:05;16.00;99.90
20700;DHT22;10511;51.232;9.420;2023-08-01T06:59:33;15.90;99.90
20700;DHT22;10511;51.232;9.420;2023-08-01T07:02:00;15.90;99.90
20700;DHT22;10511;51.232;9.420;2023-08-01T07:04:29;15.90;99.90
20700;DHT22;10511;51.232;9.420;2023-08-01T07:06:56;15.90;99.90
20700;DHT22;10511;51.232;9.420;2023-08-01T07:09:22;16.00;99.90
20700;DHT22;10511;51.232;9.420;2023-08-01T07:11:49;16.00;99.90
20700;DHT22;10511;51.232;9.420;2023-08-01T07:14:16;16.10;99.90
20700;DHT22;10511;51.232;9.420;2023-08-01T07:16:43;16.10;99.90
20700;DHT22;10511;51.232;9.420;2023-08-01T07:19:10;16.10;99.90
20700;DHT22;10511;51.232;9.420;2023-08-01T07:21:39;16.20;99.90
20700;DHT22;10511;51.232;9.420;2023-08-01T07:24:05;16.20;99.90
20700;DHT22;10511;51.232;9.420;2023-08-01T07:26:32;16.20;99.90
20700;DHT22;10511;51.232;9.420;2023-08-01T07:28:59;16.20;99.90
20700;DHT22;10511;51.232;9.420;2023-08-01T07:31:26;16.30;99.90
20700;DHT22;10511;51.232;9.420;2023-08-01T07:33:54;16.20;99.90
20700;DHT22;10511;51.232;9.420;2023-08-01T07:36:21;16.30;99.90
20700;DHT22;10511;51.232;9.420;2023-08-01T07:38:49;16.30;99.90
20700;DHT22;10511;51.232;9.420;2023-08-01T07:41:16;16.40;99.90
20700;DHT22;10511;51.232;9.420;2023-08-01T07:43:43;16.40;99.90
20700;DHT22;10511;51.232;9.420;2023-08-01T07:46:10;16.50;99.90
20700;DHT22;10511;51.232;9.420;2023-08-01T07:48:38;16.40;99.90
20700;DHT22;10511;51.232;9.420;2023-08-01T07:51:04;16.40;99.90
20700;DHT22;10511;51.232;9.420;2023-08-01T07:53:33;16.40;99.90
20700;DHT22;10511;51.232;9.420;2023-08-01T07:56:01;16.50;99.90
20700;DHT22;10511;51.232;9.420;2023-08-01T07:58:28;16.50;99.90
20700;DHT22;10511;51.232;9.420;2023-08-01T08:00:55;16.50;99.90
20700;DHT22;10511;51.232;9.420;2023-08-01T08:03:22;16.40;99.90
20700;DHT22;10511;51.232;9.420;2023-08-01T08:05:50;16.50;99.90
20700;DHT22;10511;51.232;9.420;2023-08-01T08:08:17;16.60;99.90
20700;DHT22;10511;51.232;9.420;2023-08-01T08:10:43;16.70;99.90
20700;DHT22;10511;51.232;9.420;2023-08-01T08:13:12;16.70;99.90
20700;DHT22;10511;51.232;9.420;2023-08-01T08:15:39;16.70;99.90
20700;DHT22;10511;51.232;9.420;2023-08-01T08:18:06;16.80;99.90
20700;DHT22;10511;51.232;9.420;2023-08-01T08:20:41;16.80;99.90
20700;DHT22;10511;51.232;9.420;2023-08-01T08:23:08;16.80;99.90
20700;DHT22;10511;51.232;9.420;2023-08-01T08:25:35;16.80;99.90
20700;DHT22;10511;51.232;9.420;2023-08-01T08:28:02;16.80;99.90
20700;DHT22;10511;51.232;9.420;2023-08-01T08:30:31;16.90;99.90
20700;DHT22;10511;51.232;9.420;2023-08-01T08:32:58;17.00;99.90
20700;DHT22;10511;51.232;9.420;2023-08-01T08:35:26;17.10;99.90
20700;DHT22;10511;51.232;9.420;2023-08-01T08:37:53;17.10;99.90
20700;DHT22;10511;51.232;9.420;2023-08-01T08:40:20;17.20;99.90
20700;DHT22;10511;51.232;9.420;2023-08-01T08:42:48;17.20;99.90
20700;DHT22;10511;51.232;9.420;2023-08-01T08:45:19;17.10;99.90
20700;DHT22;10511;51.232;9.420;2023-08-01T08:47:51;17.10;99.90
20700;DHT22;10511;51.232;9.420;2023-08-01T08:50:20;17.10;99.90
20700;DHT22;10511;51.232;9.420;2023-08-01T08:52:47;17.10;99.90
20700;DHT22;10511;51.232;9.420;2023-08-01T08:55:15;17.00;99.90
20700;DHT22;10511;51.232;9.420;2023-08-01T08:57:42;17.00;99.90
20700;DHT22;10511;51.232;9.420;2023-08-01T09:00:12;16.90;99.90
20700;DHT22;10511;51.232;9.420;2023-08-01T09:02:40;16.90;99.90
20700;DHT22;10511;51.232;9.420;2023-08-01T09:05:08;16.90;99.90
20700;DHT22;10511;51.232;9.420;2023-08-01T09:07:41;17.00;99.90
20700;DHT22;10511;51.232;9.420;2023-08-01T09:10:09;17.00;99.90
20700;DHT22;10511;51.232;9.420;2023-08-01T09:12:36;17.30;99.90
20700;DHT22;10511;51.232;9.420;2023-08-01T09:15:04;17.30;99.90
20700;DHT22;10511;51.232;9.420;2023-08-01T09:17:31;17.40;99.90
20700;DHT22;10511;51.232;9.420;2023-08-01T09:20:03;17.50;99.90
20700;DHT22;10511;51.232;9.420;2023-08-01T09:22:43;17.60;99.90
20700;DHT22;10511;51.232;9.420;2023-08-01T09:25:10;17.60;99.90
20700;DHT22;10511;51.232;9.420;2023-08-01T09:27:37;17.60;99.90
20700;DHT22;10511;51.232;9.420;2023-08-01T09:30:09;17.50;99.90
20700;DHT22;10511;51.232;9.420;2023-08-01T09:32:37;17.50;99.90
20700;DHT22;10511;51.232;9.420;2023-08-01T09:35:04;17.50;99.90
20700;DHT22;10511;51.232;9.420;2023-08-01T09:37:42;17.50;99.90
20700;DHT22;10511;51.232;9.420;2023-08-01T09:40:10;17.50;99.90
20700;DHT22;10511;51.232;9.420;2023-08-01T09:42:41;17.70;99.90
20700;DHT22;10511;51.232;9.420;2023-08-01T09:45:12;17.80;99.90
20700;DHT22;10511;51.232;9.420;2023-08-01T09:47:40;17.80;99.90
20700;DHT22;10511;51.232;9.420;2023-08-01T09:50:09;18.00;99.90
20700;DHT22;10511;51.232;9.420;2023-08-01T09:52:37;18.40;99.90
20700;DHT22;10511;51.232;9.420;2023-08-01T09:55:06;18.50;99.90
20700;DHT22;10511;51.232;9.420;2023-08-01T09:57:37;18.40;99.90
20700;DHT22;10511;51.232;9.420;2023-08-01T10:00:05;18.30;99.90
20700;DHT22;10511;51.232;9.420;2023-08-01T10:02:35;18.20;99.90
20700;DHT22;10511;51.232;9.420;2023-08-01T10:05:04;18.10;99.90
20700;DHT22;10511;51.232;9.420;2023-08-01T10:07:32;18.10;99.90
20700;DHT22;10511;51.232;9.420;2023-08-01T10:10:00;18.10;99.90
20700;DHT22;10511;51.232;9.420;2023-08-01T10:12:29;18.10;99.90
20700;DHT22;10511;51.232;9.420;2023-08-01T10:14:58;18.20;99.90
20700;DHT22;10511;51.232;9.420;2023-08-01T10:17:26;18.20;99.90
20700;DHT22;10511;51.232;9.420;2023-08-01T10:19:55;18.30;99.90
20700;DHT22;10511;51.232;9.420;2023-08-01T10:22:24;18.30;99.90
20700;DHT22;10511;51.232;9.420;2023-08-01T10:24:52;18.10;99.90
20700;DHT22;10511;51.232;9.420;2023-08-01T10:27:21;17.80;99.90
20700;DHT22;10511;51.232;9.420;2023-08-01T10:29:57;18.00;99.90
20700;DHT22;10511;51.232;9.420;2023-08-01T10:32:31;18.00;99.90
20700;DHT22;10511;51.232;9.420;2023-08-01T10:34:59;18.20;99.90
20700;DHT22;10511;51.232;9.420;2023-08-01T10:37:26;18.40;99.90
20700;DHT22;10511;51.232;9.420;2023-08-01T10:39:57;18.40;99.90
20700;DHT22;10511;51.232;9.420;2023-08-01T10:42:24;18.60;99.90
20700;DHT22;10511;51.232;9.420;2023-08-01T10:44:51;18.80;99.90
20700;DHT22;10511;51.232;9.420;2023-08-01T10:47:26;18.90;99.90
20700;DHT22;10511;51.232;9.420;2023-08-01T10:49:53;19.10;99.90
20700;DHT22;10511;51.232;9.420;2023-08-01T10:52:22;19.30;99.90
20700;DHT22;10511;51.232;9.420;2023-08-01T10:54:57;19.50;99.90
20700;DHT22;10511;51.232;9.420;2023-08-01T10:57:26;19.50;99.90
20700;DHT22;10511;51.232;9.420;2023-08-01T10:59:55;19.60;99.90
20700;DHT22;10511;51.232;9.420;2023-08-01T11:02:24;19.80;99.90
20700;DHT22;10511;51.232;9.420;2023-08-01T11:05:00;19.90;99.90
20700;DHT22;10511;51.232;9.420;2023-08-01T11:07:27;20.00;99.90
20700;DHT22;10511;51.232;9.420;2023-08-01T11:10:05;19.80;99.90
20700;DHT22;10511;51.232;9.420;2023-08-01T11:12:34;19.90;99.90
20700;DHT22;10511;51.232;9.420;2023-08-01T11:15:01;20.00;99.90
20700;DHT22;10511;51.232;9.420;2023-08-01T11:17:29;19.80;99.90
20700;DHT22;10511;51.232;9.420;2023-08-01T11:20:03;19.60;99.90
20700;DHT22;10511;51.232;9.420;2023-08-01T11:22:30;19.50;99.90
20700;DHT22;10511;51.232;9.420;2023-08-01T11:24:57;19.80;99.90
20700;DHT22;10511;51.232;9.420;2023-08-01T11:27:25;20.00;99.90
20700;DHT22;10511;51.232;9.420;2023-08-01T11:29:52;19.60;99.90
20700;DHT22;10511;51.232;9.420;2023-08-01T11:32:20;19.70;99.90
20700;DHT22;10511;51.232;9.420;2023-08-01T11:34:47;19.60;99.90
20700;DHT22;10511;51.232;9.420;2023-08-01T11:37:18;19.50;99.90
20700;DHT22;10511;51.232;9.420;2023-08-01T11:39:46;19.30;99.90
20700;DHT22;10511;51.232;9.420;2023-08-01T11:42:15;19.20;99.90
20700;DHT22;10511;51.232;9.420;2023-08-01T11:44:43;19.20;99.90
20700;DHT22;10511;51.232;9.420;2023-08-01T11:47:11;19.20;99.90
20700;DHT22;10511;51.232;9.420;2023-08-01T11:49:46;19.00;99.90
20700;DHT22;10511;51.232;9.420;2023-08-01T11:52:24;19.30;99.90
20700;DHT22;10511;51.232;9.420;2023-08-01T11:54:51;19.30;99.90
20700;DHT22;10511;51.232;9.420;2023-08-01T11:57:18;19.30;99.90
20700;DHT22;10511;51.232;9.420;2023-08-01T11:59:48;19.40;99.90
20700;DHT22;10511;51.232;9.420;2023-08-01T12:02:22;19.60;99.90
20700;DHT22;10511;51.232;9.420;2023-08-01T12:04:49;19.50;99.90
20700;DHT22;10511;51.232;9.420;2023-08-01T12:07:17;19.30;99.90
20700;DHT22;10511;51.232;9.420;2023-08-01T12:09:55;19.30;99.90
20700;DHT22;10511;51.232;9.420;2023-08-01T12:12:22;19.50;99.90
20700;DHT22;10511;51.232;9.420;2023-08-01T12:14:49;19.50;99.90
20700;DHT22;10511;51.232;9.420;2023-08-01T12:17:17;19.80;99.90
20700;DHT22;10511;51.232;9.420;2023-08-01T12:19:44;20.00;99.90
20700;DHT22;10511;51.232;9.420;2023-08-01T12:22:11;20.00;99.90
20700;DHT22;10511;51.232;9.420;2023-08-01T12:24:38;19.80;99.90
20700;DHT22;10511;51.232;9.420;2023-08-01T12:27:08;19.80;99.90
20700;DHT22;10511;51.232;9.420;2023-08-01T12:29:35;20.10;99.90
20700;DHT22;10511;51.232;9.420;2023-08-01T12:32:02;19.90;99.90
20700;DHT22;10511;51.232;9.420;2023-08-01T12:34:29;19.80;99.90
20700;DHT22;10511;51.232;9.420;2023-08-01T12:36:56;19.70;99.90
20700;DHT22;10511;51.232;9.420;2023-08-01T12:39:23;19.70;99.90
20700;DHT22;10511;51.232;9.420;2023-08-01T12:41:51;19.70;99.90
20700;DHT22;10511;51.232;9.420;2023-08-01T12:44:20;19.70;99.90
20700;DHT22;10511;51.232;9.420;2023-08-01T12:46:47;19.70;99.90
20700;DHT22;10511;51.232;9.420;2023-08-01T12:49:14;19.90;99.90
20700;DHT22;10511;51.232;9.420;2023-08-01T12:51:41;20.20;99.90
20700;DHT22;10511;51.232;9.420;2023-08-01T12:54:08;20.30;99.90
20700;DHT22;10511;51.232;9.420;2023-08-01T12:56:35;20.20;99.90
20700;DHT22;10511;51.232;9.420;2023-08-01T12:59:02;20.20;99.90
20700;DHT22;10511;51.232;9.420;2023-08-01T13:01:30;20.20;99.90
20700;DHT22;10511;51.232;9.420;2023-08-01T13:03:57;20.00;99.90
20700;DHT22;10511;51.232;9.420;2023-08-01T13:06:24;19.90;99.90
20700;DHT22;10511;51.232;9.420;2023-08-01T13:08:51;19.80;99.90
20700;DHT22;10511;51.232;9.420;2023-08-01T13:11:18;19.60;99.90
20700;DHT22;10511;51.232;9.420;2023-08-01T13:13:45;19.80;99.90
20700;DHT22;10511;51.232;9.420;2023-08-01T13:16:12;19.80;99.90
20700;DHT22;10511;51.232;9.420;2023-08-01T13:18:41;19.70;99.90
20700;DHT22;10511;51.232;9.420;2023-08-01T13:21:10;19.60;99.90
20700;DHT22;10511;51.232;9.420;2023-08-01T13:23:37;19.70;99.90
20700;DHT22;10511;51.232;9.420;2023-08-01T13:26:04;19.70;99.90
20700;DHT22;10511;51.232;9.420;2023-08-01T13:28:31;19.50;99.90
20700;DHT22;10511;51.232;9.420;2023-08-01T13:30:58;19.50;99.90
20700;DHT22;10511;51.232;9.420;2023-08-01T13:33:25;19.40;99.90
20700;DHT22;10511;51.232;9.420;2023-08-01T13:35:53;19.30;99.90
20700;DHT22;10511;51.232;9.420;2023-08-01T13:38:21;19.40;99.90
20700;DHT22;10511;51.232;9.420;2023-08-01T13:40:47;19.30;99.90
20700;DHT22;10511;51.232;9.420;2023-08-01T13:43:14;19.30;99.90
20700;DHT22;10511;51.232;9.420;2023-08-01T13:45:41;19.30;99.90
20700;DHT22;10511;51.232;9.420;2023-08-01T13:48:08;19.40;99.90
20700;DHT22;10511;51.232;9.420;2023-08-01T13:50:35;19.40;99.90
20700;DHT22;10511;51.232;9.420;2023-08-01T13:53:03;19.40;99.90
20700;DHT22;10511;51.232;9.420;2023-08-01T13:55:32;19.40;99.90
20700;DHT22;10511;51.232;9.420;2023-08-01T13:58:00;19.40;99.90
20700;DHT22;10511;51.232;9.420;2023-08-01T14:00:26;19.40;99.90
20700;DHT22;10511;51.232;9.420;2023-08-01T14:02:53;19.30;99.90
20700;DHT22;10511;51.232;9.420;2023-08-01T14:05:21;19.40;99.90
20700;DHT22;10511;51.232;9.420;2023-08-01T14:07:48;19.50;99.90
20700;DHT22;10511;51.232;9.420;2023-08-01T14:10:16;19.60;99.90
20700;DHT22;10511;51.232;9.420;2023-08-01T14:12:43;19.50;99.90
20700;DHT22;10511;51.232;9.420;2023-08-01T14:15:10;19.40;99.90
20700;DHT22;10511;51.232;9.420;2023-08-01T14:17:38;19.30;99.90
20700;DHT22;10511;51.232;9.420;2023-08-01T14:20:07;19.20;99.90
20700;DHT22;10511;51.232;9.420;2023-08-01T14:22:35;18.90;99.90
20700;DHT22;10511;51.232;9.420;2023-08-01T14:25:01;18.30;99.90
20700;DHT22;10511;51.232;9.420;2023-08-01T14:27:30;17.60;99.90
20700;DHT22;10511;51.232;9.420;2023-08-01T14:29:57;17.30;99.90
20700;DHT22;10511;51.232;9.420;2023-08-01T14:32:24;17.10;99.90
20700;DHT22;10511;51.232;9.420;2023-08-01T14:34:50;17.00;99.90
20700;DHT22;10511;51.232;9.420;2023-08-01T14:37:17;17.00;99.90
20700;DHT22;10511;51.232;9.420;2023-08-01T14:39:44;17.30;99.90
20700;DHT22;10511;51.232;9.420;2023-08-01T14:42:24;17.50;99.90
20700;DHT22;10511;51.232;9.420;2023-08-01T14:44:55;17.40;99.90
20700;DHT22;10511;51.232;9.420;2023-08-01T14:47:22;17.40;99.90
20700;DHT22;10511;51.232;9.420;2023-08-01T14:49:49;17.50;99.90
20700;DHT22;10511;51.232;9.420;2023-08-01T14:52:16;17.90;99.90
20700;DHT22;10511;51.232;9.420;2023-08-01T14:54:43;18.10;99.90
20700;DHT22;10511;51.232;9.420;2023-08-01T14:57:10;17.90;99.90
20700;DHT22;10511;51.232;9.420;2023-08-01T14:59:37;18.00;99.90
20700;DHT22;10511;51.232;9.420;2023-08-01T15:02:06;18.00;99.90
20700;DHT22;10511;51.232;9.420;2023-08-01T15:04:33;18.20;99.90
20700;DHT22;10511;51.232;9.420;2023-08-01T15:07:01;18.60;99.90
20700;DHT22;10511;51.232;9.420;2023-08-01T15:09:29;18.80;99.90
20700;DHT22;10511;51.232;9.420;2023-08-01T15:11:56;19.00;99.90
20700;DHT22;10511;51.232;9.420;2023-08-01T15:14:23;18.90;99.90
20700;DHT22;10511;51.232;9.420;2023-08-01T15:16:50;18.70;99.90
20700;DHT22;10511;51.232;9.420;2023-08-01T15:19:18;18.60;99.90
20700;DHT22;10511;51.232;9.420;2023-08-01T15:21:46;18.50;99.90
20700;DHT22;10511;51.232;9.420;2023-08-01T15:24:12;18.50;99.90
20700;DHT22;10511;51.232;9.420;2023-08-01T15:26:39;18.50;99.90
20700;DHT22;10511;51.232;9.420;2023-08-01T15:29:06;18.50;99.90
20700;DHT22;10511;51.232;9.420;2023-08-01T15:31:34;18.80;99.90
20700;DHT22;10511;51.232;9.420;2023-08-01T15:34:01;18.90;99.90